createdAt,value
2023-05-13T00:02:23.197Z,10.50
2023-05-13T00:04:49.926Z,10.50
2023-05-13T00:07:16.540Z,10.50
2023-05-13T00:09:43.215Z,10.40
2023-05-13T00:12:09.905Z,10.40
2023-05-13T00:14:37.045Z,10.40
2023-05-13T00:17:04.874Z,10.40
2023-05-13T00:19:32.030Z,10.30
2023-05-13T00:21:58.742Z,10.30
2023-05-13T00:24:25.569Z,10.30
2023-05-13T00:26:52.363Z,10.30
2023-05-13T00:29:19.155Z,10.40
2023-05-13T00:31:45.842Z,10.40
2023-05-13T00:34:12.670Z,10.40
2023-05-13T00:36:39.351Z,10.50
2023-05-13T00:39:06.050Z,10.40
2023-05-13T00:41:33.251Z,10.40
2023-05-13T00:44:00.138Z,10.40
2023-05-13T00:46:27.100Z,10.40
2023-05-13T00:48:53.947Z,10.40
2023-05-13T00:51:20.666Z,10.40
2023-05-13T00:53:47.360Z,10.30
2023-05-13T00:56:15.130Z,10.30
2023-05-13T00:58:42.063Z,10.30
2023-05-13T01:01:16.583Z,10.30
2023-05-13T01:03:50.669Z,10.30
2023-05-13T01:06:18.932Z,10.30
2023-05-13T01:08:45.817Z,10.30
2023-05-13T01:11:23.066Z,10.30
2023-05-13T01:13:51.700Z,10.30
2023-05-13T01:16:19.264Z,10.20
2023-05-13T01:18:50.058Z,10.20
2023-05-13T01:21:16.866Z,10.10
2023-05-13T01:23:43.574Z,10.20
2023-05-13T01:26:10.521Z,10.20
2023-05-13T01:28:37.355Z,10.20
2023-05-13T01:31:04.092Z,10.20
2023-05-13T01:33:31.353Z,10.20
2023-05-13T01:35:58.320Z,10.20
2023-05-13T01:38:25.284Z,10.30
2023-05-13T01:40:52.018Z,10.30
2023-05-13T01:43:18.966Z,10.30
2023-05-13T01:45:45.689Z,10.30
2023-05-13T01:48:12.374Z,10.20
2023-05-13T01:50:39.144Z,10.20
2023-05-13T01:53:06.325Z,10.20
2023-05-13T01:55:33.141Z,10.20
2023-05-13T01:57:59.903Z,10.20
2023-05-13T02:00:26.747Z,10.20
2023-05-13T02:02:53.550Z,10.20
2023-05-13T02:05:20.845Z,10.20
2023-05-13T02:07:47.527Z,10.20
2023-05-13T02:10:14.149Z,10.20
2023-05-13T02:12:41.669Z,10.20
2023-05-13T02:15:08.589Z,10.20
2023-05-13T02:17:35.485Z,10.20
2023-05-13T02:20:02.238Z,10.20
2023-05-13T02:22:29.093Z,10.30
2023-05-13T02:24:55.771Z,10.30
2023-05-13T02:27:23.698Z,10.30
2023-05-13T02:29:50.507Z,10.30
2023-05-13T02:32:17.306Z,10.30
2023-05-13T02:34:44.062Z,10.30
2023-05-13T02:37:10.698Z,10.30
2023-05-13T02:39:37.527Z,10.30
2023-05-13T02:42:04.590Z,10.20
2023-05-13T02:44:31.232Z,10.20
2023-05-13T02:46:58.025Z,10.20
2023-05-13T02:49:24.728Z,10.10
2023-05-13T02:51:51.343Z,10.10
2023-05-13T02:54:18.056Z,10.10
2023-05-13T02:56:44.673Z,10.20
2023-05-13T02:59:11.697Z,10.10
2023-05-13T03:01:38.456Z,10.20
2023-05-13T03:04:05.200Z,10.10
2023-05-13T03:06:32.139Z,10.10
2023-05-13T03:08:58.764Z,10.10
2023-05-13T03:11:26.747Z,10.10
2023-05-13T03:13:53.567Z,10.10
2023-05-13T03:16:20.585Z,10.00
2023-05-13T03:18:47.309Z,10.00
2023-05-13T03:21:14.050Z,10.00
2023-05-13T03:23:41.032Z,10.00
2023-05-13T03:26:07.692Z,10.00
2023-05-13T03:28:34.427Z,10.10
2023-05-13T03:31:01.232Z,10.10
2023-05-13T03:33:27.893Z,10.10
2023-05-13T03:38:24.234Z,10.00
2023-05-13T03:40:50.937Z,10.00
2023-05-13T03:43:17.821Z,10.10
2023-05-13T03:45:47.742Z,10.00
2023-05-13T03:48:15.069Z,10.00
2023-05-13T03:50:41.903Z,10.00
2023-05-13T03:53:08.569Z,10.00
2023-05-13T03:55:35.290Z,10.00
2023-05-13T03:58:07.664Z,10.00
2023-05-13T04:00:34.546Z,10.00
2023-05-13T04:03:01.294Z,10.00
2023-05-13T04:05:28.290Z,10.00
2023-05-13T04:07:55.333Z,10.00
2023-05-13T04:10:22.168Z,10.00
2023-05-13T04:12:49.072Z,10.00
2023-05-13T04:15:15.806Z,10.00
2023-05-13T04:17:42.643Z,10.00
2023-05-13T04:20:09.433Z,9.90
2023-05-13T04:22:36.132Z,9.90
2023-05-13T04:25:03.538Z,9.90
2023-05-13T04:27:30.332Z,10.00
2023-05-13T04:29:57.155Z,9.90
2023-05-13T04:32:23.917Z,10.00
2023-05-13T04:34:50.897Z,9.90
2023-05-13T04:37:17.654Z,10.00
2023-05-13T04:39:47.489Z,10.00
2023-05-13T04:42:14.377Z,10.00
2023-05-13T04:44:41.342Z,10.00
2023-05-13T04:47:08.485Z,10.00
2023-05-13T04:49:35.208Z,10.10
2023-05-13T04:52:02.671Z,10.00
2023-05-13T04:54:29.313Z,10.00
2023-05-13T04:56:56.224Z,10.10
2023-05-13T04:59:23.040Z,10.00
2023-05-13T05:01:49.819Z,10.10
2023-05-13T05:04:16.785Z,10.10
2023-05-13T05:06:43.647Z,10.10
2023-05-13T05:09:10.712Z,10.00
2023-05-13T05:11:38.076Z,10.10
2023-05-13T05:14:04.721Z,10.10
2023-05-13T05:16:31.412Z,10.10
2023-05-13T05:18:58.149Z,10.10
2023-05-13T05:21:24.791Z,10.00
2023-05-13T05:23:51.420Z,9.90
2023-05-13T05:26:18.268Z,9.90
2023-05-13T05:28:45.051Z,10.00
2023-05-13T05:31:12.007Z,10.00
2023-05-13T05:33:38.990Z,10.00
2023-05-13T05:36:05.949Z,10.00
2023-05-13T05:38:32.724Z,10.00
2023-05-13T05:40:59.398Z,10.10
2023-05-13T05:43:26.681Z,10.20
2023-05-13T05:45:53.469Z,10.20
2023-05-13T05:48:20.227Z,10.20
2023-05-13T05:50:47.220Z,10.20
2023-05-13T05:53:16.994Z,10.30
2023-05-13T05:55:44.396Z,10.30
2023-05-13T05:58:11.396Z,10.30
2023-05-13T06:00:38.228Z,10.30
2023-05-13T06:03:05.065Z,10.30
2023-05-13T06:05:31.759Z,10.40
2023-05-13T06:07:59.564Z,10.40
2023-05-13T06:10:26.229Z,10.40
2023-05-13T06:12:53.025Z,10.40
2023-05-13T06:15:19.796Z,10.40
2023-05-13T06:17:46.593Z,10.40
2023-05-13T06:20:13.246Z,10.40
2023-05-13T06:22:40.847Z,10.30
2023-05-13T06:25:08.635Z,10.40
2023-05-13T06:27:36.012Z,10.30
2023-05-13T06:30:03.466Z,10.40
2023-05-13T06:32:30.102Z,10.40
2023-05-13T06:34:57.113Z,10.40
2023-05-13T06:37:24.004Z,10.40
2023-05-13T06:39:50.694Z,10.40
2023-05-13T06:42:17.456Z,10.40
2023-05-13T06:44:44.649Z,10.50
2023-05-13T06:47:15.844Z,10.50
2023-05-13T06:49:43.022Z,10.50
2023-05-13T06:52:09.968Z,10.50
2023-05-13T06:54:36.695Z,10.60
2023-05-13T06:57:05.731Z,10.50
2023-05-13T06:59:32.406Z,10.60
2023-05-13T07:01:59.027Z,10.60
2023-05-13T07:04:25.654Z,10.60
2023-05-13T07:06:54.735Z,10.60
2023-05-13T07:09:21.561Z,10.60
2023-05-13T07:11:48.204Z,10.60
2023-05-13T07:14:14.874Z,10.70
2023-05-13T07:16:41.538Z,10.70
2023-05-13T07:19:08.265Z,10.70
2023-05-13T07:21:35.371Z,10.70
2023-05-13T07:24:02.360Z,10.70
2023-05-13T07:26:28.969Z,10.70
2023-05-13T07:28:56.470Z,10.70
2023-05-13T07:31:23.264Z,10.70
2023-05-13T07:33:49.965Z,10.80
2023-05-13T07:36:16.640Z,10.70
2023-05-13T07:38:44.221Z,10.80
2023-05-13T07:41:10.792Z,10.80
2023-05-13T07:43:40.480Z,10.80
2023-05-13T07:46:07.224Z,10.90
2023-05-13T07:48:33.934Z,10.90
2023-05-13T07:51:00.703Z,10.90
2023-05-13T07:53:27.345Z,10.90
2023-05-13T07:55:54.429Z,10.90
2023-05-13T07:58:21.267Z,10.90
2023-05-13T08:00:49.643Z,10.90
2023-05-13T08:03:17.314Z,10.90
2023-05-13T08:05:44.158Z,10.80
2023-05-13T08:08:10.895Z,10.80
2023-05-13T08:10:37.593Z,10.80
2023-05-13T08:13:04.315Z,10.80
2023-05-13T08:15:31.055Z,10.90
2023-05-13T08:17:58.074Z,10.90
2023-05-13T08:20:29.902Z,11.00
2023-05-13T08:22:57.726Z,11.10
2023-05-13T08:25:24.580Z,11.10
2023-05-13T08:27:51.633Z,11.10
2023-05-13T08:30:18.558Z,11.20
2023-05-13T08:32:45.323Z,11.20
2023-05-13T08:35:12.002Z,11.40
2023-05-13T08:37:39.757Z,11.50
2023-05-13T08:40:07.067Z,11.60
2023-05-13T08:42:33.832Z,11.60
2023-05-13T08:45:02.376Z,11.60
2023-05-13T08:47:29.065Z,11.60
2023-05-13T08:49:56.728Z,11.60
2023-05-13T08:52:23.350Z,11.50
2023-05-13T08:54:49.993Z,11.70
2023-05-13T08:57:16.645Z,11.80
2023-05-13T08:59:43.643Z,11.90
2023-05-13T09:02:10.335Z,11.90
2023-05-13T09:04:37.930Z,11.90
2023-05-13T09:07:07.949Z,12.00
2023-05-13T09:09:35.250Z,11.90
2023-05-13T09:12:01.825Z,11.80
2023-05-13T09:14:34.956Z,11.80
2023-05-13T09:17:01.727Z,11.90
2023-05-13T09:19:28.561Z,12.10
2023-05-13T09:21:55.815Z,12.20
2023-05-13T09:24:22.557Z,12.40
2023-05-13T09:26:50.188Z,12.40
2023-05-13T09:29:24.353Z,12.40
2023-05-13T09:31:52.251Z,12.40
2023-05-13T09:34:25.115Z,12.40
2023-05-13T09:37:04.775Z,12.50
2023-05-13T09:39:33.892Z,12.60
2023-05-13T09:42:04.324Z,12.60
2023-05-13T09:44:32.085Z,12.80
2023-05-13T09:46:58.945Z,12.90
2023-05-13T09:49:28.699Z,13.10
2023-05-13T09:51:55.355Z,13.20
2023-05-13T09:54:22.040Z,13.30
2023-05-13T09:56:48.815Z,13.60
2023-05-13T09:59:15.755Z,13.60
2023-05-13T10:01:42.598Z,13.70
2023-05-13T10:04:09.334Z,13.60
2023-05-13T10:06:36.062Z,13.40
2023-05-13T10:09:05.644Z,13.30
2023-05-13T10:11:33.125Z,13.10
2023-05-13T10:14:00.489Z,13.00
2023-05-13T10:16:27.730Z,13.00
2023-05-13T10:18:54.515Z,13.00
2023-05-13T10:21:21.530Z,13.10
2023-05-13T10:23:48.139Z,13.40
2023-05-13T10:26:14.779Z,13.70
2023-05-13T10:28:42.558Z,13.60
2023-05-13T10:31:09.263Z,13.60
2023-05-13T10:33:36.001Z,13.60
2023-05-13T10:36:02.582Z,13.80
2023-05-13T10:38:36.693Z,14.20
2023-05-13T10:41:22.258Z,14.40
2023-05-13T10:43:48.905Z,14.60
2023-05-13T10:46:15.659Z,14.80
2023-05-13T10:48:49.399Z,14.90
2023-05-13T10:51:16.644Z,14.80
2023-05-13T10:53:46.629Z,14.80
2023-05-13T10:56:13.679Z,15.10
2023-05-13T10:58:40.388Z,14.80
2023-05-13T11:01:12.702Z,14.60
2023-05-13T11:03:39.768Z,14.70
2023-05-13T11:06:19.647Z,14.70
2023-05-13T11:08:47.137Z,14.50
2023-05-13T11:11:22.945Z,14.70
2023-05-13T11:13:50.155Z,15.00
2023-05-13T11:16:17.084Z,15.00
2023-05-13T11:18:43.866Z,15.10
2023-05-13T11:21:10.666Z,15.30
2023-05-13T11:23:50.640Z,15.40
2023-05-13T11:26:17.430Z,15.30
2023-05-13T11:29:00.292Z,15.40
2023-05-13T11:31:27.606Z,15.30
2023-05-13T11:34:13.212Z,15.10
2023-05-13T11:36:40.486Z,14.90
2023-05-13T11:39:07.930Z,14.90
2023-05-13T11:41:34.561Z,15.20
2023-05-13T11:44:03.479Z,15.40
2023-05-13T11:46:30.445Z,15.40
2023-05-13T11:48:57.182Z,15.40
2023-05-13T11:51:25.256Z,15.70
2023-05-13T11:53:53.199Z,16.00
2023-05-13T11:56:19.787Z,15.90
2023-05-13T11:58:46.456Z,16.10
2023-05-13T12:01:16.251Z,16.20
2023-05-13T12:03:42.953Z,16.00
2023-05-13T12:06:09.662Z,15.90
2023-05-13T12:08:42.856Z,15.70
2023-05-13T12:11:13.044Z,15.90
2023-05-13T12:13:40.969Z,16.00
2023-05-13T12:16:07.729Z,16.20
2023-05-13T12:18:34.544Z,16.20
2023-05-13T12:21:01.304Z,16.40
2023-05-13T12:23:38.375Z,16.40
2023-05-13T12:26:07.383Z,16.50
2023-05-13T12:28:33.993Z,16.90
2023-05-13T12:31:01.716Z,17.10
2023-05-13T12:33:29.271Z,17.20
2023-05-13T12:36:14.777Z,16.80
2023-05-13T12:38:53.364Z,16.60
2023-05-13T12:41:20.990Z,16.50
2023-05-13T12:43:47.559Z,16.30
2023-05-13T12:46:14.225Z,16.50
2023-05-13T12:48:41.061Z,16.80
2023-05-13T12:51:07.818Z,17.00
2023-05-13T12:53:34.403Z,17.00
2023-05-13T12:56:01.027Z,17.00
2023-05-13T12:58:27.841Z,17.00
2023-05-13T13:00:54.687Z,17.00
2023-05-13T13:03:24.260Z,16.90
2023-05-13T13:05:51.651Z,16.90
2023-05-13T13:08:18.715Z,17.10
2023-05-13T13:10:45.440Z,17.30
2023-05-13T13:13:12.133Z,17.10
2023-05-13T13:15:39.427Z,17.50
2023-05-13T13:18:06.866Z,17.60
2023-05-13T13:20:34.486Z,17.70
2023-05-13T13:23:02.033Z,17.50
2023-05-13T13:25:29.234Z,18.10
2023-05-13T13:27:56.203Z,18.20
2023-05-13T13:30:22.842Z,18.00
2023-05-13T13:32:49.506Z,17.80
2023-05-13T13:35:16.424Z,17.50
2023-05-13T13:37:43.263Z,18.10
2023-05-13T13:40:10.309Z,17.60
2023-05-13T13:42:44.131Z,17.30
2023-05-13T13:45:12.555Z,17.00
2023-05-13T13:47:39.313Z,16.60
2023-05-13T13:50:06.431Z,16.60
2023-05-13T13:52:33.251Z,16.80
2023-05-13T13:55:00.568Z,16.30
2023-05-13T13:57:27.464Z,15.70
2023-05-13T13:59:54.179Z,15.30
2023-05-13T14:02:20.858Z,14.90
2023-05-13T14:04:47.471Z,14.70
2023-05-13T14:07:14.296Z,15.00
2023-05-13T14:09:41.310Z,15.50
2023-05-13T14:12:08.422Z,16.00
2023-05-13T14:14:35.123Z,16.30
2023-05-13T14:17:01.835Z,16.60
2023-05-13T14:19:28.520Z,16.70
2023-05-13T14:21:55.174Z,16.70
2023-05-13T14:24:22.462Z,16.70
2023-05-13T14:26:49.071Z,16.80
2023-05-13T14:29:16.011Z,17.00
2023-05-13T14:31:43.010Z,17.00
2023-05-13T14:34:09.634Z,16.90
2023-05-13T14:36:36.276Z,17.00
2023-05-13T14:39:03.074Z,17.00
2023-05-13T14:41:30.272Z,17.30
2023-05-13T14:43:56.961Z,17.70
2023-05-13T14:46:23.601Z,17.60
2023-05-13T14:48:50.307Z,17.60
2023-05-13T14:51:17.749Z,17.70
2023-05-13T14:53:44.341Z,17.60
2023-05-13T14:56:11.027Z,17.10
2023-05-13T14:58:37.662Z,16.90
2023-05-13T15:01:04.381Z,17.40
2023-05-13T15:03:31.004Z,17.40
2023-05-13T15:05:58.119Z,17.70
2023-05-13T15:08:25.317Z,17.70
2023-05-13T15:10:52.011Z,17.60
2023-05-13T15:13:19.130Z,17.50
2023-05-13T15:15:45.997Z,17.90
2023-05-13T15:18:13.237Z,17.80
2023-05-13T15:20:39.878Z,17.70
2023-05-13T15:23:06.583Z,18.00
2023-05-13T15:25:33.171Z,18.10
2023-05-13T15:27:59.812Z,17.90
2023-05-13T15:30:26.402Z,17.70
2023-05-13T15:32:53.086Z,17.50
2023-05-13T15:35:19.716Z,17.30
2023-05-13T15:37:47.364Z,17.40
2023-05-13T15:40:14.436Z,17.20
2023-05-13T15:42:41.274Z,17.30
2023-05-13T15:45:08.024Z,17.40
2023-05-13T15:47:34.751Z,17.20
2023-05-13T15:50:01.510Z,16.90
2023-05-13T15:52:28.270Z,16.60
2023-05-13T15:54:54.870Z,16.30
2023-05-13T15:57:21.550Z,16.00
2023-05-13T15:59:48.339Z,15.80
2023-05-13T16:02:14.995Z,15.50
2023-05-13T16:04:41.669Z,15.40
2023-05-13T16:07:10.940Z,15.40
2023-05-13T16:09:38.100Z,15.40
2023-05-13T16:12:05.158Z,15.30
2023-05-13T16:14:32.076Z,15.20
2023-05-13T16:17:01.819Z,15.00
2023-05-13T16:19:28.436Z,14.90
2023-05-13T16:21:55.255Z,14.90
2023-05-13T16:24:22.479Z,14.60
2023-05-13T16:26:49.268Z,14.60
2023-05-13T16:29:15.914Z,14.50
2023-05-13T16:31:42.547Z,14.40
2023-05-13T16:34:09.179Z,14.40
2023-05-13T16:36:37.069Z,14.50
2023-05-13T16:39:04.336Z,14.40
2023-05-13T16:41:31.084Z,14.40
2023-05-13T16:43:57.947Z,14.30
2023-05-13T16:46:24.613Z,14.10
2023-05-13T16:48:51.401Z,14.10
2023-05-13T16:51:18.162Z,14.00
2023-05-13T16:53:44.786Z,14.10
2023-05-13T16:56:11.396Z,14.10
2023-05-13T16:58:38.758Z,14.00
2023-05-13T17:01:05.990Z,13.90
2023-05-13T17:03:32.890Z,13.90
2023-05-13T17:05:59.636Z,14.00
2023-05-13T17:08:26.249Z,13.70
2023-05-13T17:10:52.908Z,13.70
2023-05-13T17:13:19.788Z,13.70
2023-05-13T17:15:46.874Z,13.60
2023-05-13T17:18:13.601Z,13.60
2023-05-13T17:20:40.202Z,13.70
2023-05-13T17:23:06.813Z,13.60
2023-05-13T17:25:33.425Z,13.60
2023-05-13T17:28:00.509Z,13.60
2023-05-13T17:30:27.163Z,13.60
2023-05-13T17:32:54.023Z,13.60
2023-05-13T17:35:20.648Z,13.60
2023-05-13T17:37:47.272Z,13.70
2023-05-13T17:40:13.990Z,13.60
2023-05-13T17:42:40.717Z,13.50
2023-05-13T17:45:07.755Z,13.50
2023-05-13T17:47:34.509Z,13.40
2023-05-13T17:50:01.196Z,13.40
2023-05-13T17:52:28.019Z,13.30
2023-05-13T17:54:54.637Z,13.20
2023-05-13T17:57:21.350Z,13.30
2023-05-13T17:59:48.203Z,13.30
2023-05-13T18:02:14.968Z,13.20
2023-05-13T18:04:42.092Z,13.20
2023-05-13T18:07:08.861Z,13.30
2023-05-13T18:09:36.373Z,13.30
2023-05-13T18:12:03.396Z,13.20
2023-05-13T18:14:32.416Z,13.20
2023-05-13T18:16:59.413Z,13.20
2023-05-13T18:19:26.806Z,13.30
2023-05-13T18:21:53.493Z,13.30
2023-05-13T18:24:20.137Z,13.30
2023-05-13T18:26:46.794Z,13.10
2023-05-13T18:29:13.450Z,13.10
2023-05-13T18:31:40.133Z,13.00
2023-05-13T18:34:07.044Z,13.00
2023-05-13T18:36:33.743Z,12.80
2023-05-13T18:39:00.435Z,12.80
2023-05-13T18:41:27.132Z,12.80
2023-05-13T18:43:53.824Z,12.80
2023-05-13T18:46:21.022Z,12.80
2023-05-13T18:48:47.835Z,12.80
2023-05-13T18:51:16.419Z,12.70
2023-05-13T18:53:43.274Z,12.70
2023-05-13T18:56:09.884Z,12.70
2023-05-13T18:58:36.552Z,12.70
2023-05-13T19:01:03.621Z,12.70
2023-05-13T19:03:30.681Z,12.70
2023-05-13T19:05:57.668Z,12.70
2023-05-13T19:08:24.252Z,12.70
2023-05-13T19:10:50.841Z,12.60
2023-05-13T19:13:19.773Z,12.50
2023-05-13T19:15:46.479Z,12.40
2023-05-13T19:18:13.310Z,12.30
2023-05-13T19:20:40.106Z,12.30
2023-05-13T19:23:06.724Z,12.30
2023-05-13T19:25:33.805Z,12.40
2023-05-13T19:28:01.324Z,12.30
2023-05-13T19:30:28.152Z,12.30
2023-05-13T19:32:54.810Z,12.30
2023-05-13T19:35:23.393Z,12.30
2023-05-13T19:37:50.150Z,12.30
2023-05-13T19:40:16.898Z,12.20
2023-05-13T19:42:43.711Z,12.10
2023-05-13T19:45:10.980Z,12.20
2023-05-13T19:47:38.558Z,12.10
2023-05-13T19:50:05.707Z,12.10
2023-05-13T19:52:35.330Z,12.10
2023-05-13T19:55:02.482Z,12.10
2023-05-13T19:57:30.178Z,12.10
2023-05-13T19:59:57.978Z,12.10
2023-05-13T20:02:24.842Z,12.20
2023-05-13T20:04:52.275Z,12.10
2023-05-13T20:07:19.314Z,12.10
2023-05-13T20:09:47.165Z,12.10
2023-05-13T20:12:14.081Z,12.00
2023-05-13T20:14:45.445Z,12.00
2023-05-13T20:17:14.300Z,12.00
2023-05-13T20:19:42.760Z,12.00
2023-05-13T20:22:10.292Z,12.00
2023-05-13T20:24:36.962Z,12.10
2023-05-13T20:27:03.772Z,12.10
2023-05-13T20:29:37.290Z,12.10
2023-05-13T20:32:04.523Z,12.00
2023-05-13T20:34:31.260Z,12.00
2023-05-13T20:36:58.562Z,11.90
2023-05-13T20:39:25.448Z,11.90
2023-05-13T20:41:52.450Z,11.80
2023-05-13T20:44:19.224Z,11.80
2023-05-13T20:46:45.891Z,11.70
2023-05-13T20:49:12.726Z,11.70
2023-05-13T20:51:39.605Z,11.70
2023-05-13T20:54:12.373Z,11.60
2023-05-13T20:56:39.349Z,11.60
2023-05-13T20:59:06.235Z,11.60
2023-05-13T21:01:33.945Z,11.50
2023-05-13T21:04:02.480Z,11.60
2023-05-13T21:06:29.102Z,11.50
2023-05-13T21:08:55.815Z,11.50
2023-05-13T21:11:22.404Z,11.40
2023-05-13T21:13:49.188Z,11.50
2023-05-13T21:16:16.125Z,11.40
2023-05-13T21:18:43.085Z,11.40
2023-05-13T21:21:12.580Z,11.40
2023-05-13T21:23:45.686Z,11.40
2023-05-13T21:26:12.612Z,11.40
2023-05-13T21:28:39.346Z,11.50
2023-05-13T21:31:06.055Z,11.50
2023-05-13T21:33:32.748Z,11.50
2023-05-13T21:35:59.378Z,11.60
2023-05-13T21:38:26.880Z,11.60
2023-05-13T21:40:53.795Z,11.60
2023-05-13T21:43:20.715Z,11.60
2023-05-13T21:45:47.787Z,11.60
2023-05-13T21:48:14.678Z,11.60
2023-05-13T21:50:41.533Z,11.60
2023-05-13T21:53:08.121Z,11.60
2023-05-13T21:55:35.101Z,11.70
2023-05-13T21:58:04.869Z,11.60
2023-05-13T22:00:31.689Z,11.60
2023-05-13T22:03:00.237Z,11.60
2023-05-13T22:05:27.382Z,11.50
2023-05-13T22:07:54.178Z,11.50
2023-05-13T22:10:21.040Z,11.60
2023-05-13T22:12:48.115Z,11.60
2023-05-13T22:15:15.677Z,11.60
2023-05-13T22:17:42.520Z,11.50
2023-05-13T22:20:09.427Z,11.50
2023-05-13T22:22:36.276Z,11.50
2023-05-13T22:25:03.397Z,11.50
2023-05-13T22:27:30.065Z,11.50
2023-05-13T22:29:56.898Z,11.40
2023-05-13T22:32:23.747Z,11.40
2023-05-13T22:34:50.607Z,11.40
2023-05-13T22:37:17.284Z,11.40
2023-05-13T22:39:44.406Z,11.40
2023-05-13T22:42:11.117Z,11.40
2023-05-13T22:44:37.932Z,11.30
2023-05-13T22:47:04.629Z,11.30
2023-05-13T22:49:31.254Z,11.20
2023-05-13T22:51:58.014Z,11.20
2023-05-13T22:54:24.720Z,11.20
2023-05-13T22:56:51.542Z,11.20
2023-05-13T22:59:18.129Z,11.20
2023-05-13T23:01:44.872Z,11.20
2023-05-13T23:04:11.526Z,11.20
2023-05-13T23:06:38.250Z,11.20
2023-05-13T23:09:05.685Z,11.30
2023-05-13T23:11:32.707Z,11.20
2023-05-13T23:13:59.449Z,11.20
2023-05-13T23:16:28.879Z,11.20
2023-05-13T23:18:55.948Z,11.20
2023-05-13T23:21:22.552Z,11.10
2023-05-13T23:23:50.474Z,11.10
2023-05-13T23:26:17.262Z,11.10
2023-05-13T23:28:43.973Z,11.10
2023-05-13T23:31:10.653Z,11.00
2023-05-13T23:33:37.302Z,11.00
2023-05-13T23:36:04.126Z,10.90
2023-05-13T23:38:31.168Z,10.90
2023-05-13T23:40:57.846Z,10.80
2023-05-13T23:43:24.512Z,10.80
2023-05-13T23:45:51.394Z,10.70
2023-05-13T23:48:18.039Z,10.70
2023-05-13T23:50:44.814Z,10.70
2023-05-13T23:53:11.522Z,10.70
2023-05-13T23:55:38.150Z,10.60
2023-05-13T23:58:04.847Z,10.70
